Terminal Aerodrome Forecast
Issued by NWS

Home | Current Version | Previous Version | Text Only | Print | Product List | Glossary On
Versions: 1 2 3 4 5 6 7 8 9 10 11 12 13 14 15 16 17 18 19 20 21 22 23 24 25
000
FTUS43 KDLH 301200 AAA
TAFHYR
TAF AMD
KHYR 301250Z 3013/3112 00000KT P6SM SCT100
     FM301800 19005KT P6SM BKN060
     FM310400 31006KT P6SM VCSH OVC025
     FM310700 VRB03KT P6SM SCT010 BKN018=

USA.gov is the U.S. government's official web portal to all federal, state and local government web resources and services.